sensor_id;sensor_type;location;lat;lon;timestamp;P1;durP1;ratioP1;P2;durP2;ratioP2
35084;SDS011;21267;51.032;6.998;2022-08-21T00:01:38;15.93;;;13.30;;
35084;SDS011;21267;51.032;6.998;2022-08-21T00:04:06;18.13;;;12.68;;
35084;SDS011;21267;51.032;6.998;2022-08-21T00:06:34;14.95;;;12.20;;
35084;SDS011;21267;51.032;6.998;2022-08-21T00:09:01;14.77;;;11.30;;
35084;SDS011;21267;51.032;6.998;2022-08-21T00:11:32;13.65;;;12.10;;
35084;SDS011;21267;51.032;6.998;2022-08-21T00:14:01;16.42;;;12.35;;
35084;SDS011;21267;51.032;6.998;2022-08-21T00:16:29;16.35;;;13.57;;
35084;SDS011;21267;51.032;6.998;2022-08-21T00:18:57;19.30;;;15.20;;
35084;SDS011;21267;51.032;6.998;2022-08-21T00:21:23;17.48;;;15.07;;
35084;SDS011;21267;51.032;6.998;2022-08-21T00:23:51;21.05;;;15.05;;
35084;SDS011;21267;51.032;6.998;2022-08-21T00:26:18;15.63;;;13.73;;
35084;SDS011;21267;51.032;6.998;2022-08-21T00:28:44;19.73;;;12.95;;
35084;SDS011;21267;51.032;6.998;2022-08-21T00:31:12;16.50;;;12.40;;
35084;SDS011;21267;51.032;6.998;2022-08-21T00:33:38;17.33;;;11.77;;
35084;SDS011;21267;51.032;6.998;2022-08-21T00:36:05;15.27;;;11.73;;
35084;SDS011;21267;51.032;6.998;2022-08-21T00:38:32;13.97;;;11.97;;
35084;SDS011;21267;51.032;6.998;2022-08-21T00:41:00;12.48;;;10.85;;
35084;SDS011;21267;51.032;6.998;2022-08-21T00:43:48;13.68;;;11.13;;
35084;SDS011;21267;51.032;6.998;2022-08-21T00:48:42;13.02;;;10.40;;
35084;SDS011;21267;51.032;6.998;2022-08-21T00:51:13;13.82;;;10.40;;
35084;SDS011;21267;51.032;6.998;2022-08-21T00:53:49;16.48;;;11.43;;
35084;SDS011;21267;51.032;6.998;2022-08-21T00:56:20;15.77;;;11.07;;
35084;SDS011;21267;51.032;6.998;2022-08-21T00:58:47;15.63;;;11.43;;
35084;SDS011;21267;51.032;6.998;2022-08-21T01:01:20;13.60;;;11.30;;
35084;SDS011;21267;51.032;6.998;2022-08-21T01:03:47;14.93;;;11.30;;
35084;SDS011;21267;51.032;6.998;2022-08-21T01:06:15;14.90;;;12.23;;
35084;SDS011;21267;51.032;6.998;2022-08-21T01:08:42;15.83;;;11.20;;
35084;SDS011;21267;51.032;6.998;2022-08-21T01:11:13;13.95;;;11.48;;
35084;SDS011;21267;51.032;6.998;2022-08-21T01:13:40;13.38;;;10.63;;
35084;SDS011;21267;51.032;6.998;2022-08-21T01:16:12;17.77;;;11.50;;
35084;SDS011;21267;51.032;6.998;2022-08-21T01:18:41;14.15;;;11.02;;
35084;SDS011;21267;51.032;6.998;2022-08-21T01:23:39;17.95;;;11.90;;
35084;SDS011;21267;51.032;6.998;2022-08-21T01:26:09;14.07;;;11.65;;
35084;SDS011;21267;51.032;6.998;2022-08-21T01:28:37;17.45;;;12.35;;
35084;SDS011;21267;51.032;6.998;2022-08-21T01:31:07;13.43;;;12.02;;
35084;SDS011;21267;51.032;6.998;2022-08-21T01:33:35;16.00;;;12.25;;
35084;SDS011;21267;51.032;6.998;2022-08-21T01:36:02;19.40;;;13.03;;
35084;SDS011;21267;51.032;6.998;2022-08-21T01:38:30;16.37;;;12.43;;
35084;SDS011;21267;51.032;6.998;2022-08-21T01:40:57;16.63;;;12.52;;
35084;SDS011;21267;51.032;6.998;2022-08-21T01:43:24;15.60;;;11.90;;
35084;SDS011;21267;51.032;6.998;2022-08-21T01:46:04;16.75;;;12.32;;
35084;SDS011;21267;51.032;6.998;2022-08-21T01:48:31;16.52;;;12.88;;
35084;SDS011;21267;51.032;6.998;2022-08-21T01:50:58;15.60;;;12.80;;
35084;SDS011;21267;51.032;6.998;2022-08-21T01:53:25;14.27;;;12.75;;
35084;SDS011;21267;51.032;6.998;2022-08-21T01:55:58;17.45;;;13.05;;
35084;SDS011;21267;51.032;6.998;2022-08-21T01:58:25;14.30;;;12.65;;
35084;SDS011;21267;51.032;6.998;2022-08-21T02:00:51;21.05;;;12.73;;
35084;SDS011;21267;51.032;6.998;2022-08-21T02:03:19;18.38;;;13.63;;
35084;SDS011;21267;51.032;6.998;2022-08-21T02:06:01;17.25;;;12.15;;
35084;SDS011;21267;51.032;6.998;2022-08-21T02:08:28;19.63;;;12.95;;
35084;SDS011;21267;51.032;6.998;2022-08-21T02:10:55;15.83;;;12.80;;
35084;SDS011;21267;51.032;6.998;2022-08-21T02:13:22;17.83;;;12.75;;
35084;SDS011;21267;51.032;6.998;2022-08-21T02:15:48;14.82;;;12.77;;
35084;SDS011;21267;51.032;6.998;2022-08-21T02:18:15;14.45;;;12.93;;
35084;SDS011;21267;51.032;6.998;2022-08-21T02:20:43;18.88;;;13.38;;
35084;SDS011;21267;51.032;6.998;2022-08-21T02:23:13;16.92;;;12.52;;
35084;SDS011;21267;51.032;6.998;2022-08-21T02:25:40;16.60;;;12.57;;
35084;SDS011;21267;51.032;6.998;2022-08-21T02:28:08;19.15;;;13.73;;
35084;SDS011;21267;51.032;6.998;2022-08-21T02:30:38;13.80;;;12.35;;
35084;SDS011;21267;51.032;6.998;2022-08-21T02:33:08;15.38;;;12.90;;
35084;SDS011;21267;51.032;6.998;2022-08-21T02:35:36;16.65;;;12.68;;
35084;SDS011;21267;51.032;6.998;2022-08-21T02:38:05;19.02;;;12.85;;
35084;SDS011;21267;51.032;6.998;2022-08-21T02:40:39;16.88;;;12.10;;
35084;SDS011;21267;51.032;6.998;2022-08-21T02:43:13;16.05;;;12.75;;
35084;SDS011;21267;51.032;6.998;2022-08-21T02:45:41;15.80;;;12.07;;
35084;SDS011;21267;51.032;6.998;2022-08-21T02:48:11;14.07;;;12.07;;
35084;SDS011;21267;51.032;6.998;2022-08-21T02:50:41;14.15;;;12.55;;
35084;SDS011;21267;51.032;6.998;2022-08-21T02:53:10;16.73;;;12.38;;
35084;SDS011;21267;51.032;6.998;2022-08-21T02:55:40;14.40;;;11.93;;
35084;SDS011;21267;51.032;6.998;2022-08-21T02:58:06;17.98;;;12.60;;
35084;SDS011;21267;51.032;6.998;2022-08-21T03:00:34;15.05;;;12.05;;
35084;SDS011;21267;51.032;6.998;2022-08-21T03:03:03;19.05;;;13.35;;
35084;SDS011;21267;51.032;6.998;2022-08-21T03:05:31;13.73;;;12.30;;
35084;SDS011;21267;51.032;6.998;2022-08-21T03:07:59;16.58;;;12.85;;
35084;SDS011;21267;51.032;6.998;2022-08-21T03:10:28;17.45;;;13.05;;
35084;SDS011;21267;51.032;6.998;2022-08-21T03:12:55;14.73;;;11.70;;
35084;SDS011;21267;51.032;6.998;2022-08-21T03:15:23;15.25;;;12.05;;
35084;SDS011;21267;51.032;6.998;2022-08-21T03:17:50;17.25;;;12.48;;
35084;SDS011;21267;51.032;6.998;2022-08-21T03:20:18;13.67;;;11.90;;
35084;SDS011;21267;51.032;6.998;2022-08-21T03:22:49;14.38;;;11.63;;
35084;SDS011;21267;51.032;6.998;2022-08-21T03:25:22;13.73;;;12.27;;
35084;SDS011;21267;51.032;6.998;2022-08-21T03:28:07;15.50;;;11.70;;
35084;SDS011;21267;51.032;6.998;2022-08-21T03:30:41;16.23;;;12.10;;
35084;SDS011;21267;51.032;6.998;2022-08-21T03:33:08;15.90;;;11.75;;
35084;SDS011;21267;51.032;6.998;2022-08-21T03:35:41;15.23;;;12.05;;
35084;SDS011;21267;51.032;6.998;2022-08-21T03:38:13;15.52;;;12.40;;
35084;SDS011;21267;51.032;6.998;2022-08-21T03:40:41;16.23;;;13.20;;
35084;SDS011;21267;51.032;6.998;2022-08-21T03:43:08;14.52;;;12.45;;
35084;SDS011;21267;51.032;6.998;2022-08-21T03:45:36;16.88;;;12.48;;
35084;SDS011;21267;51.032;6.998;2022-08-21T03:48:04;15.50;;;12.32;;
35084;SDS011;21267;51.032;6.998;2022-08-21T03:50:34;14.40;;;12.68;;
35084;SDS011;21267;51.032;6.998;2022-08-21T03:53:06;14.52;;;11.57;;
35084;SDS011;21267;51.032;6.998;2022-08-21T03:55:42;16.45;;;13.10;;
35084;SDS011;21267;51.032;6.998;2022-08-21T03:58:11;19.42;;;12.45;;
35084;SDS011;21267;51.032;6.998;2022-08-21T04:00:42;19.08;;;13.35;;
35084;SDS011;21267;51.032;6.998;2022-08-21T04:03:09;18.75;;;12.65;;
35084;SDS011;21267;51.032;6.998;2022-08-21T04:05:36;15.32;;;12.55;;
35084;SDS011;21267;51.032;6.998;2022-08-21T04:08:04;15.18;;;12.48;;
35084;SDS011;21267;51.032;6.998;2022-08-21T04:10:33;15.98;;;12.48;;
35084;SDS011;21267;51.032;6.998;2022-08-21T04:13:02;14.90;;;12.50;;
35084;SDS011;21267;51.032;6.998;2022-08-21T04:17:55;14.98;;;11.35;;
35084;SDS011;21267;51.032;6.998;2022-08-21T04:20:22;19.08;;;12.52;;
35084;SDS011;21267;51.032;6.998;2022-08-21T04:22:49;13.83;;;12.13;;
35084;SDS011;21267;51.032;6.998;2022-08-21T04:25:17;14.20;;;11.98;;
35084;SDS011;21267;51.032;6.998;2022-08-21T04:27:46;19.67;;;12.70;;
35084;SDS011;21267;51.032;6.998;2022-08-21T04:30:13;15.70;;;12.43;;
35084;SDS011;21267;51.032;6.998;2022-08-21T04:32:44;15.50;;;12.60;;
35084;SDS011;21267;51.032;6.998;2022-08-21T04:35:12;18.70;;;12.15;;
35084;SDS011;21267;51.032;6.998;2022-08-21T04:37:40;19.02;;;12.75;;
35084;SDS011;21267;51.032;6.998;2022-08-21T04:40:07;14.15;;;11.70;;
35084;SDS011;21267;51.032;6.998;2022-08-21T04:42:41;13.50;;;12.02;;
35084;SDS011;21267;51.032;6.998;2022-08-21T04:45:16;13.55;;;11.80;;
35084;SDS011;21267;51.032;6.998;2022-08-21T04:47:57;19.13;;;12.90;;
35084;SDS011;21267;51.032;6.998;2022-08-21T04:50:45;20.48;;;13.20;;
35084;SDS011;21267;51.032;6.998;2022-08-21T04:53:22;16.73;;;12.57;;
35084;SDS011;21267;51.032;6.998;2022-08-21T04:55:56;19.63;;;15.52;;
35084;SDS011;21267;51.032;6.998;2022-08-21T04:58:27;18.73;;;12.93;;
35084;SDS011;21267;51.032;6.998;2022-08-21T05:00:55;16.30;;;12.98;;
35084;SDS011;21267;51.032;6.998;2022-08-21T05:03:24;17.38;;;12.90;;
35084;SDS011;21267;51.032;6.998;2022-08-21T05:05:50;16.80;;;13.40;;
35084;SDS011;21267;51.032;6.998;2022-08-21T05:08:19;14.67;;;12.40;;
35084;SDS011;21267;51.032;6.998;2022-08-21T05:10:50;21.13;;;13.35;;
35084;SDS011;21267;51.032;6.998;2022-08-21T05:13:16;15.15;;;12.55;;
35084;SDS011;21267;51.032;6.998;2022-08-21T05:15:43;18.83;;;12.30;;
35084;SDS011;21267;51.032;6.998;2022-08-21T05:18:10;14.13;;;12.63;;
35084;SDS011;21267;51.032;6.998;2022-08-21T05:20:37;15.25;;;12.63;;
35084;SDS011;21267;51.032;6.998;2022-08-21T05:23:07;16.63;;;13.07;;
35084;SDS011;21267;51.032;6.998;2022-08-21T05:25:36;16.10;;;11.50;;
35084;SDS011;21267;51.032;6.998;2022-08-21T05:28:03;17.27;;;13.00;;
35084;SDS011;21267;51.032;6.998;2022-08-21T05:30:31;17.73;;;13.10;;
35084;SDS011;21267;51.032;6.998;2022-08-21T05:32:59;16.58;;;11.55;;
35084;SDS011;21267;51.032;6.998;2022-08-21T05:35:27;17.00;;;12.60;;
35084;SDS011;21267;51.032;6.998;2022-08-21T05:40:21;18.48;;;12.82;;
35084;SDS011;21267;51.032;6.998;2022-08-21T05:42:52;14.98;;;12.20;;
35084;SDS011;21267;51.032;6.998;2022-08-21T05:45:21;16.60;;;12.63;;
35084;SDS011;21267;51.032;6.998;2022-08-21T05:48:19;16.02;;;12.35;;
35084;SDS011;21267;51.032;6.998;2022-08-21T05:50:48;15.63;;;12.60;;
35084;SDS011;21267;51.032;6.998;2022-08-21T05:53:16;15.50;;;12.32;;
35084;SDS011;21267;51.032;6.998;2022-08-21T05:55:44;15.18;;;12.65;;
35084;SDS011;21267;51.032;6.998;2022-08-21T05:58:13;14.38;;;12.63;;
35084;SDS011;21267;51.032;6.998;2022-08-21T06:00:41;16.80;;;11.45;;
35084;SDS011;21267;51.032;6.998;2022-08-21T06:03:13;16.05;;;12.57;;
35084;SDS011;21267;51.032;6.998;2022-08-21T06:05:41;18.60;;;12.55;;
35084;SDS011;21267;51.032;6.998;2022-08-21T06:08:07;15.82;;;12.02;;
35084;SDS011;21267;51.032;6.998;2022-08-21T06:10:34;14.55;;;12.35;;
35084;SDS011;21267;51.032;6.998;2022-08-21T06:13:01;14.55;;;11.70;;
35084;SDS011;21267;51.032;6.998;2022-08-21T06:15:27;13.52;;;11.68;;
35084;SDS011;21267;51.032;6.998;2022-08-21T06:17:54;16.20;;;11.30;;
35084;SDS011;21267;51.032;6.998;2022-08-21T06:20:21;14.00;;;11.95;;
35084;SDS011;21267;51.032;6.998;2022-08-21T06:22:48;14.80;;;12.38;;
35084;SDS011;21267;51.032;6.998;2022-08-21T06:25:15;17.02;;;13.15;;
35084;SDS011;21267;51.032;6.998;2022-08-21T06:27:41;16.77;;;12.48;;
35084;SDS011;21267;51.032;6.998;2022-08-21T06:33:38;15.77;;;11.55;;
35084;SDS011;21267;51.032;6.998;2022-08-21T06:36:05;18.70;;;13.07;;
35084;SDS011;21267;51.032;6.998;2022-08-21T06:38:32;17.02;;;12.25;;
35084;SDS011;21267;51.032;6.998;2022-08-21T06:40:58;20.45;;;11.43;;
35084;SDS011;21267;51.032;6.998;2022-08-21T06:43:29;16.23;;;13.50;;
35084;SDS011;21267;51.032;6.998;2022-08-21T06:46:05;15.80;;;11.73;;
35084;SDS011;21267;51.032;6.998;2022-08-21T06:48:33;20.30;;;13.05;;
35084;SDS011;21267;51.032;6.998;2022-08-21T06:51:00;24.53;;;17.07;;
35084;SDS011;21267;51.032;6.998;2022-08-21T06:53:27;18.43;;;12.77;;
35084;SDS011;21267;51.032;6.998;2022-08-21T06:55:53;14.68;;;12.25;;
35084;SDS011;21267;51.032;6.998;2022-08-21T06:58:20;21.48;;;14.85;;
35084;SDS011;21267;51.032;6.998;2022-08-21T07:00:47;20.00;;;13.50;;
35084;SDS011;21267;51.032;6.998;2022-08-21T07:03:16;18.88;;;12.63;;
35084;SDS011;21267;51.032;6.998;2022-08-21T07:05:51;17.23;;;12.73;;
35084;SDS011;21267;51.032;6.998;2022-08-21T07:08:18;16.73;;;12.30;;
35084;SDS011;21267;51.032;6.998;2022-08-21T07:10:45;20.73;;;13.65;;
35084;SDS011;21267;51.032;6.998;2022-08-21T07:13:13;17.30;;;12.07;;
35084;SDS011;21267;51.032;6.998;2022-08-21T07:15:40;15.65;;;13.63;;
35084;SDS011;21267;51.032;6.998;2022-08-21T07:18:07;17.42;;;12.27;;
35084;SDS011;21267;51.032;6.998;2022-08-21T07:20:33;14.03;;;11.47;;
35084;SDS011;21267;51.032;6.998;2022-08-21T07:23:02;15.03;;;10.57;;
35084;SDS011;21267;51.032;6.998;2022-08-21T07:25:33;13.73;;;10.15;;
35084;SDS011;21267;51.032;6.998;2022-08-21T07:27:59;15.10;;;10.63;;
35084;SDS011;21267;51.032;6.998;2022-08-21T07:30:26;14.27;;;9.68;;
35084;SDS011;21267;51.032;6.998;2022-08-21T07:32:53;15.20;;;9.43;;
35084;SDS011;21267;51.032;6.998;2022-08-21T07:35:21;14.18;;;9.07;;
35084;SDS011;21267;51.032;6.998;2022-08-21T07:40:15;19.50;;;10.35;;
35084;SDS011;21267;51.032;6.998;2022-08-21T07:42:44;13.10;;;8.70;;
35084;SDS011;21267;51.032;6.998;2022-08-21T07:45:12;9.95;;;7.35;;
35084;SDS011;21267;51.032;6.998;2022-08-21T07:47:40;9.25;;;6.90;;
35084;SDS011;21267;51.032;6.998;2022-08-21T07:50:09;13.25;;;7.32;;
35084;SDS011;21267;51.032;6.998;2022-08-21T07:52:37;11.68;;;8.32;;
35084;SDS011;21267;51.032;6.998;2022-08-21T07:55:05;15.60;;;9.23;;
35084;SDS011;21267;51.032;6.998;2022-08-21T07:59:59;13.60;;;8.80;;
35084;SDS011;21267;51.032;6.998;2022-08-21T08:02:27;15.63;;;8.40;;
35084;SDS011;21267;51.032;6.998;2022-08-21T08:05:02;11.30;;;8.32;;
35084;SDS011;21267;51.032;6.998;2022-08-21T08:07:30;10.75;;;7.22;;
35084;SDS011;21267;51.032;6.998;2022-08-21T08:09:57;10.53;;;6.30;;
35084;SDS011;21267;51.032;6.998;2022-08-21T08:12:24;10.20;;;6.75;;
35084;SDS011;21267;51.032;6.998;2022-08-21T08:14:56;12.88;;;6.53;;
35084;SDS011;21267;51.032;6.998;2022-08-21T08:17:24;8.13;;;5.03;;
35084;SDS011;21267;51.032;6.998;2022-08-21T08:22:18;9.50;;;3.13;;
35084;SDS011;21267;51.032;6.998;2022-08-21T08:24:47;9.48;;;3.58;;
35084;SDS011;21267;51.032;6.998;2022-08-21T08:27:14;8.13;;;3.20;;
35084;SDS011;21267;51.032;6.998;2022-08-21T08:29:42;8.50;;;3.05;;
35084;SDS011;21267;51.032;6.998;2022-08-21T08:32:10;7.75;;;3.55;;
35084;SDS011;21267;51.032;6.998;2022-08-21T08:34:37;8.63;;;2.93;;
35084;SDS011;21267;51.032;6.998;2022-08-21T08:37:05;7.70;;;3.30;;
35084;SDS011;21267;51.032;6.998;2022-08-21T08:39:33;9.45;;;4.20;;
35084;SDS011;21267;51.032;6.998;2022-08-21T08:44:50;12.18;;;4.88;;
35084;SDS011;21267;51.032;6.998;2022-08-21T08:47:38;12.65;;;2.83;;
35084;SDS011;21267;51.032;6.998;2022-08-21T08:50:26;7.10;;;2.42;;
35084;SDS011;21267;51.032;6.998;2022-08-21T08:53:03;8.20;;;3.08;;
35084;SDS011;21267;51.032;6.998;2022-08-21T08:58:00;8.02;;;2.65;;
35084;SDS011;21267;51.032;6.998;2022-08-21T09:00:29;8.85;;;2.58;;
35084;SDS011;21267;51.032;6.998;2022-08-21T09:02:57;5.30;;;2.30;;
35084;SDS011;21267;51.032;6.998;2022-08-21T09:05:32;5.65;;;2.10;;
35084;SDS011;21267;51.032;6.998;2022-08-21T09:13:49;7.85;;;2.95;;
35084;SDS011;21267;51.032;6.998;2022-08-21T09:19:22;4.60;;;1.98;;
35084;SDS011;21267;51.032;6.998;2022-08-21T09:22:18;5.97;;;2.08;;
35084;SDS011;21267;51.032;6.998;2022-08-21T09:24:54;9.15;;;2.38;;
35084;SDS011;21267;51.032;6.998;2022-08-21T09:27:41;8.88;;;2.95;;
35084;SDS011;21267;51.032;6.998;2022-08-21T09:30:08;6.00;;;1.93;;
35084;SDS011;21267;51.032;6.998;2022-08-21T09:32:36;5.57;;;2.20;;
35084;SDS011;21267;51.032;6.998;2022-08-21T09:35:09;6.82;;;2.42;;
35084;SDS011;21267;51.032;6.998;2022-08-21T09:40:39;5.40;;;1.70;;
35084;SDS011;21267;51.032;6.998;2022-08-21T09:45:38;8.57;;;2.07;;
35084;SDS011;21267;51.032;6.998;2022-08-21T09:50:37;4.18;;;1.52;;
35084;SDS011;21267;51.032;6.998;2022-08-21T09:53:04;6.03;;;2.40;;
35084;SDS011;21267;51.032;6.998;2022-08-21T09:55:47;7.15;;;1.67;;
35084;SDS011;21267;51.032;6.998;2022-08-21T09:58:37;7.50;;;2.17;;
35084;SDS011;21267;51.032;6.998;2022-08-21T10:01:05;7.70;;;3.20;;
35084;SDS011;21267;51.032;6.998;2022-08-21T10:03:32;11.48;;;8.57;;
35084;SDS011;21267;51.032;6.998;2022-08-21T10:06:01;7.68;;;2.30;;
35084;SDS011;21267;51.032;6.998;2022-08-21T10:08:36;8.48;;;3.28;;
35084;SDS011;21267;51.032;6.998;2022-08-21T10:11:06;4.85;;;1.45;;
35084;SDS011;21267;51.032;6.998;2022-08-21T10:19:21;10.23;;;6.07;;
35084;SDS011;21267;51.032;6.998;2022-08-21T10:24:33;7.20;;;2.15;;
35084;SDS011;21267;51.032;6.998;2022-08-21T10:29:58;5.43;;;1.73;;
35084;SDS011;21267;51.032;6.998;2022-08-21T10:35:14;8.48;;;1.95;;
35084;SDS011;21267;51.032;6.998;2022-08-21T10:43:14;6.10;;;1.80;;
35084;SDS011;21267;51.032;6.998;2022-08-21T10:48:39;4.45;;;1.67;;
35084;SDS011;21267;51.032;6.998;2022-08-21T10:51:21;4.63;;;1.02;;
35084;SDS011;21267;51.032;6.998;2022-08-21T10:54:34;7.35;;;2.05;;
35084;SDS011;21267;51.032;6.998;2022-08-21T10:57:31;6.93;;;2.00;;
35084;SDS011;21267;51.032;6.998;2022-08-21T11:00:11;5.65;;;1.25;;
35084;SDS011;21267;51.032;6.998;2022-08-21T11:02:42;4.00;;;1.90;;
35084;SDS011;21267;51.032;6.998;2022-08-21T11:05:25;6.38;;;2.53;;
35084;SDS011;21267;51.032;6.998;2022-08-21T11:10:36;2.38;;;1.00;;
35084;SDS011;21267;51.032;6.998;2022-08-21T11:19:12;5.40;;;1.80;;
35084;SDS011;21267;51.032;6.998;2022-08-21T11:28:09;4.72;;;1.42;;
35084;SDS011;21267;51.032;6.998;2022-08-21T11:33:48;6.40;;;1.98;;
35084;SDS011;21267;51.032;6.998;2022-08-21T11:39:16;4.95;;;1.83;;
35084;SDS011;21267;51.032;6.998;2022-08-21T11:41:54;8.57;;;4.43;;
35084;SDS011;21267;51.032;6.998;2022-08-21T11:44:38;24.63;;;22.10;;
35084;SDS011;21267;51.032;6.998;2022-08-21T11:47:20;9.93;;;7.38;;
35084;SDS011;21267;51.032;6.998;2022-08-21T11:52:56;3.75;;;1.30;;
35084;SDS011;21267;51.032;6.998;2022-08-21T11:58:32;6.97;;;3.97;;
35084;SDS011;21267;51.032;6.998;2022-08-21T12:01:09;3.08;;;1.10;;
35084;SDS011;21267;51.032;6.998;2022-08-21T12:03:41;5.28;;;2.85;;
35084;SDS011;21267;51.032;6.998;2022-08-21T12:06:12;7.10;;;3.45;;
35084;SDS011;21267;51.032;6.998;2022-08-21T12:08:56;5.55;;;3.00;;
35084;SDS011;21267;51.032;6.998;2022-08-21T12:11:26;3.25;;;1.55;;
35084;SDS011;21267;51.032;6.998;2022-08-21T12:16:32;5.85;;;2.05;;
35084;SDS011;21267;51.032;6.998;2022-08-21T12:24:43;7.97;;;2.08;;
35084;SDS011;21267;51.032;6.998;2022-08-21T12:27:26;6.32;;;2.00;;
35084;SDS011;21267;51.032;6.998;2022-08-21T12:29:56;4.63;;;1.60;;
35084;SDS011;21267;51.032;6.998;2022-08-21T12:32:30;9.48;;;3.58;;
35084;SDS011;21267;51.032;6.998;2022-08-21T12:35:44;4.35;;;1.60;;
35084;SDS011;21267;51.032;6.998;2022-08-21T12:38:14;4.28;;;1.60;;
35084;SDS011;21267;51.032;6.998;2022-08-21T12:43:35;7.70;;;2.40;;
35084;SDS011;21267;51.032;6.998;2022-08-21T12:46:06;3.30;;;2.17;;
35084;SDS011;21267;51.032;6.998;2022-08-21T12:51:36;8.13;;;2.80;;
35084;SDS011;21267;51.032;6.998;2022-08-21T12:54:21;4.65;;;1.60;;
35084;SDS011;21267;51.032;6.998;2022-08-21T12:57:01;5.90;;;2.03;;
35084;SDS011;21267;51.032;6.998;2022-08-21T12:59:29;3.00;;;1.27;;
35084;SDS011;21267;51.032;6.998;2022-08-21T13:02:03;7.13;;;1.70;;
35084;SDS011;21267;51.032;6.998;2022-08-21T13:04:40;6.50;;;2.10;;
35084;SDS011;21267;51.032;6.998;2022-08-21T13:07:08;4.10;;;1.30;;
35084;SDS011;21267;51.032;6.998;2022-08-21T13:09:48;5.38;;;1.77;;
35084;SDS011;21267;51.032;6.998;2022-08-21T13:12:20;4.25;;;1.98;;
35084;SDS011;21267;51.032;6.998;2022-08-21T13:14:54;5.38;;;1.65;;
35084;SDS011;21267;51.032;6.998;2022-08-21T13:17:27;4.38;;;1.38;;
35084;SDS011;21267;51.032;6.998;2022-08-21T13:19:59;4.80;;;1.80;;
35084;SDS011;21267;51.032;6.998;2022-08-21T13:22:28;3.60;;;1.52;;
35084;SDS011;21267;51.032;6.998;2022-08-21T13:25:00;5.18;;;1.60;;
35084;SDS011;21267;51.032;6.998;2022-08-21T13:27:32;3.55;;;1.48;;
35084;SDS011;21267;51.032;6.998;2022-08-21T13:30:20;6.65;;;1.60;;
35084;SDS011;21267;51.032;6.998;2022-08-21T13:32:50;4.25;;;1.30;;
35084;SDS011;21267;51.032;6.998;2022-08-21T13:35:23;3.90;;;1.60;;
35084;SDS011;21267;51.032;6.998;2022-08-21T13:38:00;4.35;;;1.95;;
35084;SDS011;21267;51.032;6.998;2022-08-21T13:40:29;3.90;;;1.15;;
35084;SDS011;21267;51.032;6.998;2022-08-21T13:42:59;3.72;;;1.45;;
35084;SDS011;21267;51.032;6.998;2022-08-21T13:45:29;2.80;;;1.50;;
35084;SDS011;21267;51.032;6.998;2022-08-21T13:47:57;3.47;;;1.40;;
35084;SDS011;21267;51.032;6.998;2022-08-21T13:50:32;5.03;;;1.38;;
35084;SDS011;21267;51.032;6.998;2022-08-21T13:53:02;6.07;;;1.67;;
35084;SDS011;21267;51.032;6.998;2022-08-21T13:55:35;6.85;;;1.92;;
35084;SDS011;21267;51.032;6.998;2022-08-21T13:58:05;4.35;;;1.65;;
35084;SDS011;21267;51.032;6.998;2022-08-21T14:00:34;3.95;;;1.80;;
35084;SDS011;21267;51.032;6.998;2022-08-21T14:03:09;3.50;;;1.30;;
35084;SDS011;21267;51.032;6.998;2022-08-21T14:05:52;3.70;;;1.25;;
35084;SDS011;21267;51.032;6.998;2022-08-21T14:11:16;2.58;;;1.05;;
35084;SDS011;21267;51.032;6.998;2022-08-21T14:13:45;3.25;;;1.38;;
35084;SDS011;21267;51.032;6.998;2022-08-21T14:16:16;4.03;;;1.58;;
35084;SDS011;21267;51.032;6.998;2022-08-21T14:21:31;4.82;;;1.40;;
35084;SDS011;21267;51.032;6.998;2022-08-21T14:24:03;4.22;;;1.70;;
35084;SDS011;21267;51.032;6.998;2022-08-21T14:26:30;4.47;;;1.40;;
35084;SDS011;21267;51.032;6.998;2022-08-21T14:28:59;4.80;;;1.30;;
35084;SDS011;21267;51.032;6.998;2022-08-21T14:31:34;3.83;;;2.08;;
35084;SDS011;21267;51.032;6.998;2022-08-21T14:34:09;4.55;;;1.48;;
35084;SDS011;21267;51.032;6.998;2022-08-21T14:36:45;3.92;;;1.45;;
35084;SDS011;21267;51.032;6.998;2022-08-21T14:39:13;2.85;;;1.33;;
35084;SDS011;21267;51.032;6.998;2022-08-21T14:41:39;3.75;;;1.20;;
35084;SDS011;21267;51.032;6.998;2022-08-21T14:44:08;2.75;;;1.30;;
35084;SDS011;21267;51.032;6.998;2022-08-21T14:46:35;4.93;;;2.17;;
35084;SDS011;21267;51.032;6.998;2022-08-21T14:49:21;5.90;;;2.10;;
35084;SDS011;21267;51.032;6.998;2022-08-21T14:51:49;5.88;;;2.78;;
35084;SDS011;21267;51.032;6.998;2022-08-21T14:54:23;11.23;;;4.53;;
35084;SDS011;21267;51.032;6.998;2022-08-21T14:56:57;7.65;;;1.70;;
35084;SDS011;21267;51.032;6.998;2022-08-21T14:59:25;8.05;;;3.88;;
35084;SDS011;21267;51.032;6.998;2022-08-21T15:04:18;3.15;;;1.30;;
35084;SDS011;21267;51.032;6.998;2022-08-21T15:06:45;6.45;;;2.42;;
35084;SDS011;21267;51.032;6.998;2022-08-21T15:09:11;5.03;;;2.25;;
35084;SDS011;21267;51.032;6.998;2022-08-21T15:11:38;1.95;;;1.05;;
35084;SDS011;21267;51.032;6.998;2022-08-21T15:14:08;3.47;;;1.13;;
35084;SDS011;21267;51.032;6.998;2022-08-21T15:16:41;4.95;;;1.92;;
35084;SDS011;21267;51.032;6.998;2022-08-21T15:19:08;3.20;;;1.52;;
35084;SDS011;21267;51.032;6.998;2022-08-21T15:21:34;3.65;;;1.70;;
35084;SDS011;21267;51.032;6.998;2022-08-21T15:24:01;1.80;;;1.30;;
35084;SDS011;21267;51.032;6.998;2022-08-21T15:26:28;3.70;;;1.50;;
35084;SDS011;21267;51.032;6.998;2022-08-21T15:28:54;3.25;;;1.48;;
35084;SDS011;21267;51.032;6.998;2022-08-21T15:31:21;2.17;;;1.27;;
35084;SDS011;21267;51.032;6.998;2022-08-21T15:33:48;5.00;;;1.58;;
35084;SDS011;21267;51.032;6.998;2022-08-21T15:36:14;1.90;;;1.13;;
35084;SDS011;21267;51.032;6.998;2022-08-21T15:38:41;5.88;;;1.90;;
35084;SDS011;21267;51.032;6.998;2022-08-21T15:41:07;4.30;;;1.30;;
35084;SDS011;21267;51.032;6.998;2022-08-21T15:43:37;3.67;;;1.70;;
35084;SDS011;21267;51.032;6.998;2022-08-21T15:46:09;5.57;;;2.58;;
35084;SDS011;21267;51.032;6.998;2022-08-21T15:48:39;7.10;;;4.30;;
35084;SDS011;21267;51.032;6.998;2022-08-21T15:51:05;3.65;;;1.33;;
35084;SDS011;21267;51.032;6.998;2022-08-21T15:53:32;4.45;;;2.60;;
35084;SDS011;21267;51.032;6.998;2022-08-21T15:56:02;4.90;;;0.88;;
35084;SDS011;21267;51.032;6.998;2022-08-21T15:58:29;4.82;;;1.60;;
35084;SDS011;21267;51.032;6.998;2022-08-21T16:00:58;3.00;;;1.35;;
35084;SDS011;21267;51.032;6.998;2022-08-21T16:03:26;6.70;;;1.25;;
35084;SDS011;21267;51.032;6.998;2022-08-21T16:05:54;3.33;;;1.90;;
35084;SDS011;21267;51.032;6.998;2022-08-21T16:08:23;4.70;;;2.70;;
35084;SDS011;21267;51.032;6.998;2022-08-21T16:10:50;8.25;;;4.72;;
35084;SDS011;21267;51.032;6.998;2022-08-21T16:13:25;13.68;;;9.98;;
35084;SDS011;21267;51.032;6.998;2022-08-21T16:15:54;3.33;;;1.70;;
35084;SDS011;21267;51.032;6.998;2022-08-21T16:18:21;5.95;;;4.53;;
35084;SDS011;21267;51.032;6.998;2022-08-21T16:20:49;4.72;;;2.88;;
35084;SDS011;21267;51.032;6.998;2022-08-21T16:23:16;4.35;;;1.67;;
35084;SDS011;21267;51.032;6.998;2022-08-21T16:25:42;7.97;;;3.65;;
35084;SDS011;21267;51.032;6.998;2022-08-21T16:28:10;4.07;;;2.40;;
35084;SDS011;21267;51.032;6.998;2022-08-21T16:30:40;5.65;;;4.18;;
35084;SDS011;21267;51.032;6.998;2022-08-21T16:33:20;5.38;;;3.42;;
35084;SDS011;21267;51.032;6.998;2022-08-21T16:35:53;9.85;;;4.97;;
35084;SDS011;21267;51.032;6.998;2022-08-21T16:38:20;8.75;;;7.22;;
35084;SDS011;21267;51.032;6.998;2022-08-21T16:40:46;6.43;;;3.03;;
35084;SDS011;21267;51.032;6.998;2022-08-21T16:43:13;8.55;;;5.68;;
35084;SDS011;21267;51.032;6.998;2022-08-21T16:45:40;7.72;;;3.63;;
35084;SDS011;21267;51.032;6.998;2022-08-21T16:48:08;6.32;;;5.32;;